WZZ134 EPWA-LHBP
Flight info
| Callsign | WZZ134 |
|---|---|
| Flight time | 0h 53m |
| Altitude | 38000 |
| Route | EVINA DCT KUKAM DCT BABKO/N0448F390 DCT ULPUK DCT EDEMU |
| Aircraft | A20N/M-SDE2E3FGHIRWXY/LB1 |
Departure
| Time | 2026-05-08 06:19 |
|---|---|
| Airport | Warsaw Chopin Airport (EPWA) |
Arrival
| Time | 2026-05-08 07:12 |
|---|---|
| Airport | Budapest Liszt Ferenc International Airport (LHBP) |
| Time | Latitude | Longitude | Altitude | Speed | Heading |
|---|---|---|---|---|---|
| 2026-05-08 06:04 | 52.17276 | 20.96600 | 336 ft | 0 kts | 207° |
| 2026-05-08 06:15 | 52.17249 | 20.96577 | 336 ft | 8 kts | 208° |
| 2026-05-08 06:15 | 52.17184 | 20.96573 | 336 ft | 12 kts | 154° |
| 2026-05-08 06:15 | 52.17104 | 20.96647 | 338 ft | 15 kts | 152° |
| 2026-05-08 06:15 | 52.17004 | 20.96734 | 337 ft | 18 kts | 151° |
| 2026-05-08 06:16 | 52.16888 | 20.96835 | 333 ft | 20 kts | 152° |
| 2026-05-08 06:16 | 52.16758 | 20.96949 | 338 ft | 22 kts | 152° |
| 2026-05-08 06:16 | 52.16650 | 20.97112 | 337 ft | 20 kts | 119° |
| 2026-05-08 06:16 | 52.16587 | 20.97329 | 334 ft | 22 kts | 114° |
| 2026-05-08 06:17 | 52.16469 | 20.97745 | 336 ft | 8 kts | 114° |
| 2026-05-08 06:17 | 52.16422 | 20.97808 | 337 ft | 10 kts | 181° |
| 2026-05-08 06:17 | 52.16355 | 20.97752 | 335 ft | 13 kts | 206° |
| 2026-05-08 06:18 | 52.16304 | 20.97680 | 334 ft | 9 kts | 262° |
| 2026-05-08 06:18 | 52.16330 | 20.97584 | 335 ft | 11 kts | 296° |
| 2026-05-08 06:18 | 52.16406 | 20.97316 | 336 ft | 57 kts | 295° |
| 2026-05-08 06:18 | 52.16663 | 20.96401 | 347 ft | 117 kts | 294° |
| 2026-05-08 06:19 | 52.17065 | 20.94954 | 492 ft | 155 kts | 295° |
| 2026-05-08 06:19 | 52.17519 | 20.93329 | 1190 ft | 156 kts | 296° |
| 2026-05-08 06:19 | 52.17962 | 20.91749 | 2039 ft | 154 kts | 297° |
| 2026-05-08 06:19 | 52.18342 | 20.90067 | 2531 ft | 167 kts | 279° |
| 2026-05-08 06:20 | 52.18274 | 20.88072 | 2952 ft | 189 kts | 258° |
| 2026-05-08 06:20 | 52.17944 | 20.85964 | 3664 ft | 195 kts | 257° |
| 2026-05-08 06:20 | 52.17601 | 20.83726 | 4272 ft | 213 kts | 257° |
| 2026-05-08 06:20 | 52.17241 | 20.81275 | 4845 ft | 232 kts | 257° |
| 2026-05-08 06:21 | 52.16855 | 20.78677 | 5375 ft | 253 kts | 257° |
| 2026-05-08 06:21 | 52.16419 | 20.75789 | 6163 ft | 263 kts | 256° |
| 2026-05-08 06:21 | 52.15934 | 20.72901 | 7129 ft | 266 kts | 249° |
| 2026-05-08 06:21 | 52.14984 | 20.70298 | 8036 ft | 271 kts | 229° |
| 2026-05-08 06:22 | 52.13552 | 20.68273 | 8963 ft | 276 kts | 218° |
| 2026-05-08 06:22 | 52.12014 | 20.66360 | 9921 ft | 280 kts | 218° |
| 2026-05-08 06:22 | 52.10449 | 20.64403 | 10605 ft | 293 kts | 218° |
| 2026-05-08 06:22 | 52.08775 | 20.62297 | 10938 ft | 316 kts | 218° |
| 2026-05-08 06:23 | 52.07008 | 20.60069 | 11382 ft | 332 kts | 218° |
| 2026-05-08 06:23 | 52.05176 | 20.57756 | 12200 ft | 336 kts | 218° |
| 2026-05-08 06:23 | 52.03321 | 20.55417 | 13053 ft | 340 kts | 218° |
| 2026-05-08 06:23 | 52.01442 | 20.53049 | 13874 ft | 344 kts | 218° |
| 2026-05-08 06:24 | 51.99539 | 20.50653 | 14626 ft | 347 kts | 218° |
| 2026-05-08 06:24 | 51.97627 | 20.48248 | 15390 ft | 350 kts | 218° |
| 2026-05-08 06:24 | 51.95621 | 20.46018 | 16135 ft | 353 kts | 208° |
| 2026-05-08 06:24 | 51.93328 | 20.44505 | 16869 ft | 357 kts | 196° |
| 2026-05-08 06:25 | 51.90898 | 20.43847 | 17571 ft | 361 kts | 186° |
| 2026-05-08 06:25 | 51.88389 | 20.43490 | 18293 ft | 365 kts | 186° |
| 2026-05-08 06:25 | 51.85848 | 20.43117 | 18947 ft | 367 kts | 186° |
| 2026-05-08 06:25 | 51.83302 | 20.42736 | 19596 ft | 369 kts | 186° |
| 2026-05-08 06:26 | 51.80732 | 20.42346 | 20238 ft | 372 kts | 186° |
| 2026-05-08 06:26 | 51.78149 | 20.41953 | 20866 ft | 374 kts | 186° |
| 2026-05-08 06:26 | 51.75547 | 20.41557 | 21492 ft | 377 kts | 186° |
| 2026-05-08 06:26 | 51.72925 | 20.41158 | 22106 ft | 380 kts | 186° |
| 2026-05-08 06:27 | 51.70288 | 20.40757 | 22724 ft | 382 kts | 186° |
| 2026-05-08 06:27 | 51.67633 | 20.40354 | 23318 ft | 385 kts | 186° |
| 2026-05-08 06:27 | 51.64990 | 20.39953 | 23873 ft | 388 kts | 186° |
| 2026-05-08 06:27 | 51.62303 | 20.39546 | 24428 ft | 388 kts | 186° |
| 2026-05-08 06:28 | 51.59611 | 20.39137 | 24979 ft | 389 kts | 186° |
| 2026-05-08 06:28 | 51.56909 | 20.38728 | 25487 ft | 391 kts | 185° |
| 2026-05-08 06:28 | 51.54194 | 20.38317 | 25987 ft | 392 kts | 185° |
| 2026-05-08 06:28 | 51.51473 | 20.37907 | 26476 ft | 394 kts | 185° |
| 2026-05-08 06:29 | 51.48733 | 20.37493 | 26949 ft | 396 kts | 185° |
| 2026-05-08 06:29 | 51.45986 | 20.37080 | 27415 ft | 398 kts | 185° |
| 2026-05-08 06:29 | 51.43264 | 20.36671 | 27854 ft | 399 kts | 185° |
| 2026-05-08 06:29 | 51.40492 | 20.36226 | 28282 ft | 401 kts | 187° |
| 2026-05-08 06:30 | 51.37738 | 20.35398 | 28684 ft | 404 kts | 193° |
| 2026-05-08 06:30 | 51.35041 | 20.34102 | 29071 ft | 406 kts | 197° |
| 2026-05-08 06:30 | 51.32349 | 20.32678 | 29453 ft | 408 kts | 197° |
| 2026-05-08 06:30 | 51.29643 | 20.31255 | 29821 ft | 411 kts | 197° |
| 2026-05-08 06:31 | 51.26917 | 20.29832 | 30183 ft | 413 kts | 197° |
| 2026-05-08 06:31 | 51.24176 | 20.28408 | 30467 ft | 416 kts | 197° |
| 2026-05-08 06:31 | 51.21456 | 20.26998 | 30733 ft | 419 kts | 197° |
| 2026-05-08 06:31 | 51.18676 | 20.25561 | 31014 ft | 421 kts | 198° |
| 2026-05-08 06:32 | 51.15878 | 20.24116 | 31329 ft | 423 kts | 198° |
| 2026-05-08 06:32 | 51.13074 | 20.22670 | 31694 ft | 423 kts | 198° |
| 2026-05-08 06:32 | 51.10274 | 20.21227 | 32062 ft | 424 kts | 198° |
| 2026-05-08 06:32 | 51.07468 | 20.19784 | 32425 ft | 424 kts | 198° |
| 2026-05-08 06:33 | 51.04701 | 20.18363 | 32776 ft | 424 kts | 198° |
| 2026-05-08 06:33 | 51.01897 | 20.16925 | 33127 ft | 424 kts | 198° |
| 2026-05-08 06:33 | 50.99086 | 20.15485 | 33473 ft | 424 kts | 198° |
| 2026-05-08 06:33 | 50.96283 | 20.14051 | 33799 ft | 424 kts | 198° |
| 2026-05-08 06:34 | 50.93471 | 20.12614 | 34123 ft | 424 kts | 198° |
| 2026-05-08 06:34 | 50.90662 | 20.11180 | 34380 ft | 424 kts | 198° |
| 2026-05-08 06:34 | 50.87848 | 20.09745 | 34611 ft | 425 kts | 199° |
| 2026-05-08 06:34 | 50.85028 | 20.08310 | 34851 ft | 426 kts | 199° |
| 2026-05-08 06:35 | 50.82206 | 20.06874 | 35078 ft | 427 kts | 199° |
| 2026-05-08 06:35 | 50.79418 | 20.05458 | 35299 ft | 427 kts | 199° |
| 2026-05-08 06:35 | 50.76582 | 20.04019 | 35520 ft | 428 kts | 199° |
| 2026-05-08 06:35 | 50.73747 | 20.02583 | 35739 ft | 429 kts | 199° |
| 2026-05-08 06:36 | 50.70907 | 20.01145 | 35948 ft | 429 kts | 199° |
| 2026-05-08 06:36 | 50.68061 | 19.99706 | 36153 ft | 430 kts | 199° |
| 2026-05-08 06:36 | 50.65215 | 19.98269 | 36359 ft | 430 kts | 199° |
| 2026-05-08 06:36 | 50.62361 | 19.96829 | 36551 ft | 430 kts | 199° |
| 2026-05-08 06:37 | 50.59508 | 19.95392 | 36743 ft | 431 kts | 199° |
| 2026-05-08 06:37 | 50.56692 | 19.93975 | 36934 ft | 431 kts | 199° |
| 2026-05-08 06:37 | 50.53835 | 19.92540 | 37118 ft | 431 kts | 199° |
| 2026-05-08 06:37 | 50.50974 | 19.91105 | 37295 ft | 432 kts | 199° |
| 2026-05-08 06:38 | 50.48112 | 19.89671 | 37471 ft | 432 kts | 199° |
| 2026-05-08 06:38 | 50.45248 | 19.88237 | 37630 ft | 433 kts | 199° |
| 2026-05-08 06:38 | 50.42379 | 19.86803 | 37834 ft | 433 kts | 199° |
| 2026-05-08 06:38 | 50.39505 | 19.85368 | 38025 ft | 434 kts | 199° |
| 2026-05-08 06:39 | 50.36630 | 19.83935 | 38195 ft | 434 kts | 199° |
| 2026-05-08 06:39 | 50.33794 | 19.82523 | 38335 ft | 434 kts | 199° |
| 2026-05-08 06:39 | 50.30910 | 19.81089 | 38477 ft | 435 kts | 199° |
| 2026-05-08 06:39 | 50.28026 | 19.79657 | 38625 ft | 435 kts | 199° |
| 2026-05-08 06:40 | 50.25143 | 19.78227 | 38781 ft | 435 kts | 199° |
| 2026-05-08 06:40 | 50.22254 | 19.76795 | 38919 ft | 436 kts | 199° |
| 2026-05-08 06:40 | 50.19365 | 19.75366 | 39060 ft | 436 kts | 199° |
| 2026-05-08 06:40 | 50.16465 | 19.73933 | 39072 ft | 436 kts | 199° |
| 2026-05-08 06:41 | 50.10737 | 19.71108 | 39075 ft | 436 kts | 199° |
| 2026-05-08 06:41 | 50.04958 | 19.68265 | 39075 ft | 435 kts | 199° |
| 2026-05-08 06:42 | 49.99181 | 19.65430 | 39075 ft | 435 kts | 199° |
| 2026-05-08 06:42 | 49.93404 | 19.62602 | 39072 ft | 435 kts | 199° |
| 2026-05-08 06:43 | 49.87665 | 19.59800 | 39066 ft | 436 kts | 199° |
| 2026-05-08 06:43 | 49.81882 | 19.56984 | 39060 ft | 435 kts | 199° |
| 2026-05-08 06:44 | 49.76102 | 19.54176 | 39054 ft | 435 kts | 199° |
| 2026-05-08 06:44 | 49.70317 | 19.51372 | 39051 ft | 435 kts | 199° |
| 2026-05-08 06:45 | 49.64535 | 19.48846 | 39045 ft | 436 kts | 193° |
| 2026-05-08 06:45 | 49.58486 | 19.47843 | 39046 ft | 439 kts | 183° |
| 2026-05-08 06:46 | 49.52364 | 19.48561 | 39041 ft | 443 kts | 175° |
| 2026-05-08 06:46 | 49.46260 | 19.49749 | 39042 ft | 442 kts | 176° |
| 2026-05-08 06:47 | 49.40190 | 19.50893 | 39042 ft | 442 kts | 176° |
| 2026-05-08 06:47 | 49.34077 | 19.52035 | 39037 ft | 442 kts | 176° |
| 2026-05-08 06:48 | 49.27985 | 19.53171 | 39036 ft | 441 kts | 176° |
| 2026-05-08 06:48 | 49.21888 | 19.54305 | 39031 ft | 441 kts | 176° |
| 2026-05-08 06:49 | 49.15838 | 19.55428 | 39028 ft | 441 kts | 176° |
| 2026-05-08 06:49 | 49.09747 | 19.56555 | 39031 ft | 441 kts | 176° |
| 2026-05-08 06:50 | 49.03658 | 19.57680 | 39027 ft | 441 kts | 176° |
| 2026-05-08 06:50 | 48.97567 | 19.58802 | 39026 ft | 441 kts | 176° |
| 2026-05-08 06:51 | 48.91526 | 19.59913 | 38934 ft | 439 kts | 176° |
| 2026-05-08 06:51 | 48.88495 | 19.60469 | 38528 ft | 439 kts | 176° |
| 2026-05-08 06:51 | 48.85458 | 19.61025 | 37769 ft | 441 kts | 177° |
| 2026-05-08 06:52 | 48.82397 | 19.61585 | 36878 ft | 446 kts | 177° |
| 2026-05-08 06:52 | 48.79299 | 19.62151 | 35963 ft | 450 kts | 177° |
| 2026-05-08 06:52 | 48.76186 | 19.62879 | 35133 ft | 455 kts | 173° |
| 2026-05-08 06:52 | 48.73080 | 19.63846 | 34364 ft | 456 kts | 173° |
| 2026-05-08 06:53 | 48.69971 | 19.64817 | 33545 ft | 456 kts | 173° |
| 2026-05-08 06:53 | 48.66914 | 19.65766 | 32820 ft | 454 kts | 174° |
| 2026-05-08 06:53 | 48.63820 | 19.66720 | 31995 ft | 454 kts | 174° |
| 2026-05-08 06:53 | 48.60723 | 19.67671 | 31205 ft | 454 kts | 174° |
| 2026-05-08 06:54 | 48.57647 | 19.68615 | 30675 ft | 448 kts | 174° |
| 2026-05-08 06:54 | 48.54607 | 19.69547 | 30087 ft | 444 kts | 174° |
| 2026-05-08 06:54 | 48.51592 | 19.70469 | 29444 ft | 439 kts | 174° |
| 2026-05-08 06:54 | 48.48622 | 19.71376 | 28869 ft | 433 kts | 174° |
| 2026-05-08 06:55 | 48.45722 | 19.72260 | 28315 ft | 428 kts | 174° |
| 2026-05-08 06:55 | 48.42819 | 19.73142 | 27738 ft | 424 kts | 174° |
| 2026-05-08 06:55 | 48.39942 | 19.74014 | 27184 ft | 419 kts | 173° |
| 2026-05-08 06:55 | 48.37097 | 19.74875 | 26606 ft | 416 kts | 173° |
| 2026-05-08 06:56 | 48.34277 | 19.75727 | 26054 ft | 412 kts | 173° |
| 2026-05-08 06:56 | 48.31476 | 19.76573 | 25499 ft | 409 kts | 173° |
| 2026-05-08 06:56 | 48.28694 | 19.77411 | 24942 ft | 406 kts | 173° |
| 2026-05-08 06:56 | 48.25928 | 19.78245 | 24394 ft | 404 kts | 172° |
| 2026-05-08 06:57 | 48.23210 | 19.79062 | 23826 ft | 403 kts | 172° |
| 2026-05-08 06:57 | 48.20467 | 19.79871 | 23224 ft | 400 kts | 174° |
| 2026-05-08 06:57 | 48.17726 | 19.80303 | 22677 ft | 393 kts | 181° |
| 2026-05-08 06:57 | 48.15020 | 19.80204 | 22132 ft | 385 kts | 189° |
| 2026-05-08 06:58 | 48.12393 | 19.79649 | 21593 ft | 379 kts | 193° |
| 2026-05-08 06:58 | 48.09797 | 19.79018 | 21062 ft | 376 kts | 193° |
| 2026-05-08 06:58 | 48.07219 | 19.78405 | 20527 ft | 373 kts | 192° |
| 2026-05-08 06:58 | 48.04662 | 19.77803 | 19997 ft | 371 kts | 192° |
| 2026-05-08 06:59 | 48.02160 | 19.77164 | 19284 ft | 370 kts | 195° |
| 2026-05-08 06:59 | 47.99596 | 19.76436 | 17923 ft | 381 kts | 193° |
| 2026-05-08 06:59 | 47.96943 | 19.75734 | 16565 ft | 390 kts | 193° |
| 2026-05-08 06:59 | 47.94283 | 19.75023 | 15582 ft | 387 kts | 193° |
| 2026-05-08 07:00 | 47.91657 | 19.74299 | 14701 ft | 382 kts | 193° |
| 2026-05-08 07:00 | 47.89062 | 19.73565 | 13840 ft | 377 kts | 193° |
| 2026-05-08 07:00 | 47.86497 | 19.72828 | 12922 ft | 373 kts | 193° |
| 2026-05-08 07:00 | 47.83974 | 19.72098 | 12172 ft | 365 kts | 193° |
| 2026-05-08 07:01 | 47.81570 | 19.71406 | 11739 ft | 349 kts | 193° |
| 2026-05-08 07:01 | 47.79223 | 19.70729 | 11274 ft | 340 kts | 193° |
| 2026-05-08 07:01 | 47.76911 | 19.70060 | 10798 ft | 338 kts | 193° |
| 2026-05-08 07:01 | 47.74614 | 19.69397 | 10389 ft | 333 kts | 193° |
| 2026-05-08 07:02 | 47.72385 | 19.68757 | 10251 ft | 319 kts | 193° |
| 2026-05-08 07:02 | 47.70247 | 19.68144 | 10147 ft | 306 kts | 193° |
| 2026-05-08 07:02 | 47.68196 | 19.67557 | 9967 ft | 296 kts | 193° |
| 2026-05-08 07:02 | 47.66183 | 19.66979 | 9630 ft | 291 kts | 193° |
| 2026-05-08 07:03 | 47.64245 | 19.66423 | 9329 ft | 286 kts | 193° |
| 2026-05-08 07:03 | 47.62304 | 19.65867 | 9006 ft | 283 kts | 193° |
| 2026-05-08 07:03 | 47.60381 | 19.65316 | 8640 ft | 281 kts | 192° |
| 2026-05-08 07:03 | 47.58471 | 19.64769 | 8297 ft | 278 kts | 192° |
| 2026-05-08 07:04 | 47.56579 | 19.64228 | 7932 ft | 276 kts | 192° |
| 2026-05-08 07:04 | 47.54695 | 19.63689 | 7559 ft | 275 kts | 192° |
| 2026-05-08 07:04 | 47.52827 | 19.63156 | 7220 ft | 273 kts | 192° |
| 2026-05-08 07:04 | 47.50991 | 19.62633 | 6876 ft | 271 kts | 192° |
| 2026-05-08 07:05 | 47.49139 | 19.62105 | 6520 ft | 271 kts | 192° |
| 2026-05-08 07:05 | 47.47292 | 19.61579 | 6161 ft | 270 kts | 192° |
| 2026-05-08 07:05 | 47.45455 | 19.61057 | 5817 ft | 268 kts | 192° |
| 2026-05-08 07:05 | 47.43653 | 19.60546 | 5667 ft | 258 kts | 192° |
| 2026-05-08 07:06 | 47.41906 | 19.60051 | 5417 ft | 253 kts | 192° |
| 2026-05-08 07:06 | 47.40204 | 19.59570 | 5246 ft | 246 kts | 192° |
| 2026-05-08 07:06 | 47.38533 | 19.59096 | 4950 ft | 244 kts | 192° |
| 2026-05-08 07:06 | 47.36868 | 19.58620 | 4638 ft | 243 kts | 194° |
| 2026-05-08 07:07 | 47.35327 | 19.57733 | 4316 ft | 241 kts | 213° |
| 2026-05-08 07:07 | 47.34043 | 19.56175 | 4002 ft | 239 kts | 224° |
| 2026-05-08 07:07 | 47.32829 | 19.54502 | 3684 ft | 239 kts | 224° |
| 2026-05-08 07:07 | 47.31613 | 19.52832 | 3364 ft | 239 kts | 227° |
| 2026-05-08 07:08 | 47.30811 | 19.50745 | 3092 ft | 234 kts | 261° |
| 2026-05-08 07:08 | 47.30989 | 19.48372 | 3029 ft | 239 kts | 292° |
| 2026-05-08 07:08 | 47.31842 | 19.46292 | 3028 ft | 236 kts | 308° |
| 2026-05-08 07:08 | 47.32890 | 19.44523 | 3025 ft | 222 kts | 314° |
| 2026-05-08 07:09 | 47.33915 | 19.42908 | 2951 ft | 211 kts | 311° |
| 2026-05-08 07:09 | 47.34889 | 19.41338 | 2682 ft | 209 kts | 312° |
| 2026-05-08 07:09 | 47.35845 | 19.39798 | 2409 ft | 200 kts | 312° |
| 2026-05-08 07:09 | 47.36765 | 19.38315 | 2124 ft | 192 kts | 312° |
| 2026-05-08 07:10 | 47.37631 | 19.36919 | 1872 ft | 177 kts | 312° |
| 2026-05-08 07:10 | 47.38424 | 19.35640 | 1806 ft | 167 kts | 312° |
| 2026-05-08 07:10 | 47.39196 | 19.34394 | 1478 ft | 159 kts | 312° |
| 2026-05-08 07:10 | 47.39878 | 19.33271 | 1313 ft | 139 kts | 313° |
| 2026-05-08 07:11 | 47.40524 | 19.32241 | 1127 ft | 136 kts | 312° |
| 2026-05-08 07:11 | 47.41149 | 19.31210 | 895 ft | 136 kts | 312° |
| 2026-05-08 07:11 | 47.41803 | 19.30183 | 651 ft | 138 kts | 313° |
| 2026-05-08 07:11 | 47.42440 | 19.29157 | 457 ft | 136 kts | 312° |
| 2026-05-08 07:12 | 47.42985 | 19.28274 | 457 ft | 80 kts | 312° |
| 2026-05-08 07:12 | 47.43242 | 19.27860 | 462 ft | 48 kts | 313° |
| 2026-05-08 07:12 | 47.43365 | 19.27460 | 463 ft | 40 kts | 283° |
| 2026-05-08 07:12 | 47.43409 | 19.27160 | 459 ft | 7 kts | 282° |
| 2026-05-08 07:13 | 47.43423 | 19.27065 | 458 ft | 11 kts | 282° |
| 2026-05-08 07:13 | 47.43460 | 19.26949 | 458 ft | 14 kts | 312° |
| 2026-05-08 07:13 | 47.43530 | 19.26834 | 458 ft | 16 kts | 312° |
| 2026-05-08 07:13 | 47.43612 | 19.26703 | 458 ft | 19 kts | 313° |
| 2026-05-08 07:14 | 47.43705 | 19.26554 | 458 ft | 21 kts | 312° |
| 2026-05-08 07:14 | 47.43753 | 19.26418 | 457 ft | 10 kts | 233° |
| 2026-05-08 07:14 | 47.43691 | 19.26344 | 457 ft | 12 kts | 195° |
| 2026-05-08 07:14 | 47.43625 | 19.26415 | 457 ft | 14 kts | 131° |
| 2026-05-08 07:15 | 47.43556 | 19.26529 | 457 ft | 16 kts | 132° |
| 2026-05-08 07:15 | 47.43500 | 19.26563 | 457 ft | 7 kts | 221° |
| 2026-05-08 07:15 | 47.43481 | 19.26536 | 457 ft | 3 kts | 223° |
| 2026-05-08 07:15 | 47.43475 | 19.26527 | 457 ft | 0 kts | 222° |